This is the latest recevied weather packets stored in our database for station/object NC4M. If no packets are shown the sender has not sent any weather packets the latest 10 day(s).
| Time | Temp. | Humidity | Pressure | Rain* | Wind** | Luminosity | Snow |
|---|---|---|---|---|---|---|---|
| 1778014808 | 8.89° C | 76% | 1010.1 hPa | 0 mm | - | 57 W/m² | - |
| 1778014506 | 8.89° C | 76% | 1010 hPa | 0 mm | - | 59 W/m² | - |
| 1778014202 | 8.89° C | 74% | 1010 hPa | 0 mm | - | 54 W/m² | - |
| 1778013900 | 8.89° C | 74% | 1009.8 hPa | 0 mm | - | 46 W/m² | - |
| 1778013597 | 8.89° C | 78% | 1010.1 hPa | 0 mm | - | 48 W/m² | - |
| 1778013293 | 8.89° C | 76% | 1010 hPa | 0 mm | - | 38 W/m² | - |
| 1778012990 | 9.44° C | 76% | 1009.8 hPa | 0 mm | - | 54 W/m² | - |
| 1778012687 | 8.89° C | 78% | 1009.9 hPa | 0 mm | - | 55 W/m² | - |
| 1778012383 | 9.44° C | 76% | 1009.9 hPa | 0 mm | - | 69 W/m² | - |
| 1778012080 | 9.44° C | 77% | 1010 hPa | 0 mm | - | 67 W/m² | - |
| 1778011778 | 9.44° C | 76% | 1010 hPa | 0 mm | - | 64 W/m² | - |
| 1778011475 | 9.44° C | 79% | 1010.3 hPa | 0 mm | - | 44 W/m² | - |
| 1778011170 | 9.44° C | 78% | 1010.5 hPa | 0 mm | - | 46 W/m² | - |
| 1778010868 | 10° C | 77% | 1010.6 hPa | 0 mm | - | 49 W/m² | - |
| 1778010565 | 10° C | 78% | 1010.5 hPa | 0 mm | - | 62 W/m² | - |
| 1778010263 | 10° C | 78% | 1010.4 hPa | 0 mm | - | 62 W/m² | - |
| 1778009962 | 10° C | 79% | 1009.9 hPa | 0 mm | - | 138 W/m² | - |
| 1778009661 | 10° C | 78% | 1010.3 hPa | 0 mm | - | 105 W/m² | - |
| 1778009358 | 10° C | 79% | 1010.5 hPa | 0 mm | - | 77 W/m² | - |
| 1778009056 | 10° C | 80% | 1010.5 hPa | 0 mm | - | 73 W/m² | - |
| 1778008753 | 10° C | 78% | 1010.5 hPa | 0 mm | - | 80 W/m² | - |
| 1778008452 | 10° C | 77% | 1010.6 hPa | 0 mm | - | 89 W/m² | - |
| 1778008148 | 10° C | 76% | 1010.6 hPa | 0 mm | - | 65 W/m² | - |
| 1778007844 | 10° C | 77% | 1010.9 hPa | 0 mm | - | 58 W/m² | - |
| 1778007539 | 10° C | 78% | 1010.7 hPa | 0 mm | - | 64 W/m² | - |
* Rain latest hour (hover to see other rain measurements)
** Current wind speed in m/s (hover to see current wind gust speed)